sensor_id;sensor_type;location;lat;lon;timestamp;P1;durP1;ratioP1;P2;durP2;ratioP2
34212;SDS011;20477;51.390;8.102;2023-12-04T00:00:01;33.22;;;15.43;;
34212;SDS011;20477;51.390;8.102;2023-12-04T00:02:28;26.42;;;14.43;;
34212;SDS011;20477;51.390;8.102;2023-12-04T00:04:55;20.42;;;10.80;;
34212;SDS011;20477;51.390;8.102;2023-12-04T00:07:24;28.10;;;14.20;;
34212;SDS011;20477;51.390;8.102;2023-12-04T00:09:51;25.67;;;13.98;;
34212;SDS011;20477;51.390;8.102;2023-12-04T00:12:18;26.30;;;14.18;;
34212;SDS011;20477;51.390;8.102;2023-12-04T00:14:46;29.65;;;15.02;;
34212;SDS011;20477;51.390;8.102;2023-12-04T00:17:13;28.20;;;14.45;;
34212;SDS011;20477;51.390;8.102;2023-12-04T00:19:40;26.52;;;13.35;;
34212;SDS011;20477;51.390;8.102;2023-12-04T00:22:07;26.33;;;14.70;;
34212;SDS011;20477;51.390;8.102;2023-12-04T00:24:36;22.88;;;12.75;;
34212;SDS011;20477;51.390;8.102;2023-12-04T00:27:03;37.63;;;16.23;;
34212;SDS011;20477;51.390;8.102;2023-12-04T00:29:31;28.10;;;15.13;;
34212;SDS011;20477;51.390;8.102;2023-12-04T00:31:58;26.20;;;15.30;;
34212;SDS011;20477;51.390;8.102;2023-12-04T00:34:25;29.60;;;14.93;;
34212;SDS011;20477;51.390;8.102;2023-12-04T00:36:52;26.35;;;14.57;;
34212;SDS011;20477;51.390;8.102;2023-12-04T00:39:20;26.55;;;13.38;;
34212;SDS011;20477;51.390;8.102;2023-12-04T00:41:48;26.65;;;14.73;;
34212;SDS011;20477;51.390;8.102;2023-12-04T00:44:15;26.15;;;15.23;;
34212;SDS011;20477;51.390;8.102;2023-12-04T00:46:43;28.88;;;16.60;;
34212;SDS011;20477;51.390;8.102;2023-12-04T00:49:10;21.73;;;13.65;;
34212;SDS011;20477;51.390;8.102;2023-12-04T00:51:37;24.73;;;13.95;;
34212;SDS011;20477;51.390;8.102;2023-12-04T00:54:05;22.55;;;12.55;;
34212;SDS011;20477;51.390;8.102;2023-12-04T00:56:32;23.98;;;13.55;;
34212;SDS011;20477;51.390;8.102;2023-12-04T00:59:01;22.85;;;12.05;;
34212;SDS011;20477;51.390;8.102;2023-12-04T01:01:28;25.05;;;14.38;;
34212;SDS011;20477;51.390;8.102;2023-12-04T01:03:56;23.55;;;12.75;;
34212;SDS011;20477;51.390;8.102;2023-12-04T01:06:23;21.65;;;12.13;;
34212;SDS011;20477;51.390;8.102;2023-12-04T01:08:50;21.35;;;12.30;;
34212;SDS011;20477;51.390;8.102;2023-12-04T01:11:18;20.63;;;11.40;;
34212;SDS011;20477;51.390;8.102;2023-12-04T01:13:45;21.88;;;12.68;;
34212;SDS011;20477;51.390;8.102;2023-12-04T01:16:14;21.15;;;12.30;;
34212;SDS011;20477;51.390;8.102;2023-12-04T01:18:41;24.63;;;11.85;;
34212;SDS011;20477;51.390;8.102;2023-12-04T01:21:08;21.67;;;12.68;;
34212;SDS011;20477;51.390;8.102;2023-12-04T01:23:35;22.10;;;12.90;;
34212;SDS011;20477;51.390;8.102;2023-12-04T01:26:03;20.48;;;10.32;;
34212;SDS011;20477;51.390;8.102;2023-12-04T01:28:30;24.08;;;13.27;;
34212;SDS011;20477;51.390;8.102;2023-12-04T01:30:57;21.75;;;13.13;;
34212;SDS011;20477;51.390;8.102;2023-12-04T01:33:26;18.67;;;11.98;;
34212;SDS011;20477;51.390;8.102;2023-12-04T01:35:53;20.90;;;12.40;;
34212;SDS011;20477;51.390;8.102;2023-12-04T01:38:20;19.15;;;11.73;;
34212;SDS011;20477;51.390;8.102;2023-12-04T01:40:47;20.63;;;11.50;;
34212;SDS011;20477;51.390;8.102;2023-12-04T01:43:15;17.48;;;11.27;;
34212;SDS011;20477;51.390;8.102;2023-12-04T01:45:42;18.98;;;11.40;;
34212;SDS011;20477;51.390;8.102;2023-12-04T01:48:09;19.60;;;11.70;;
34212;SDS011;20477;51.390;8.102;2023-12-04T01:50:38;19.83;;;12.13;;
34212;SDS011;20477;51.390;8.102;2023-12-04T01:53:05;17.40;;;10.55;;
34212;SDS011;20477;51.390;8.102;2023-12-04T01:55:32;14.75;;;9.90;;
34212;SDS011;20477;51.390;8.102;2023-12-04T01:58:00;18.38;;;10.98;;
34212;SDS011;20477;51.390;8.102;2023-12-04T02:00:29;18.75;;;11.25;;
34212;SDS011;20477;51.390;8.102;2023-12-04T02:02:57;17.83;;;10.70;;
34212;SDS011;20477;51.390;8.102;2023-12-04T02:05:25;20.88;;;10.48;;
34212;SDS011;20477;51.390;8.102;2023-12-04T02:07:54;17.40;;;10.73;;
34212;SDS011;20477;51.390;8.102;2023-12-04T02:10:21;19.27;;;11.13;;
34212;SDS011;20477;51.390;8.102;2023-12-04T02:12:49;16.52;;;10.73;;
34212;SDS011;20477;51.390;8.102;2023-12-04T02:15:16;19.42;;;11.35;;
34212;SDS011;20477;51.390;8.102;2023-12-04T02:17:44;18.85;;;11.32;;
34212;SDS011;20477;51.390;8.102;2023-12-04T02:20:12;18.85;;;11.00;;
34212;SDS011;20477;51.390;8.102;2023-12-04T02:22:39;19.23;;;11.00;;
34212;SDS011;20477;51.390;8.102;2023-12-04T02:25:09;18.10;;;10.60;;
34212;SDS011;20477;51.390;8.102;2023-12-04T02:27:56;20.15;;;10.52;;
34212;SDS011;20477;51.390;8.102;2023-12-04T02:30:23;17.92;;;10.57;;
34212;SDS011;20477;51.390;8.102;2023-12-04T02:32:51;18.00;;;12.10;;
34212;SDS011;20477;51.390;8.102;2023-12-04T02:35:20;16.55;;;9.98;;
34212;SDS011;20477;51.390;8.102;2023-12-04T02:37:48;16.65;;;10.75;;
34212;SDS011;20477;51.390;8.102;2023-12-04T02:40:17;23.05;;;11.93;;
34212;SDS011;20477;51.390;8.102;2023-12-04T02:42:44;22.05;;;11.52;;
34212;SDS011;20477;51.390;8.102;2023-12-04T02:45:11;20.52;;;11.27;;
34212;SDS011;20477;51.390;8.102;2023-12-04T02:47:38;18.08;;;10.27;;
34212;SDS011;20477;51.390;8.102;2023-12-04T02:50:06;19.00;;;11.43;;
34212;SDS011;20477;51.390;8.102;2023-12-04T02:52:34;20.35;;;11.38;;
34212;SDS011;20477;51.390;8.102;2023-12-04T02:55:01;20.45;;;10.93;;
34212;SDS011;20477;51.390;8.102;2023-12-04T02:57:30;17.67;;;10.43;;
34212;SDS011;20477;51.390;8.102;2023-12-04T02:59:57;18.80;;;11.38;;
34212;SDS011;20477;51.390;8.102;2023-12-04T03:02:24;19.30;;;11.10;;
34212;SDS011;20477;51.390;8.102;2023-12-04T03:04:51;20.35;;;11.93;;
34212;SDS011;20477;51.390;8.102;2023-12-04T03:07:18;16.65;;;10.13;;
34212;SDS011;20477;51.390;8.102;2023-12-04T03:09:46;18.17;;;11.55;;
34212;SDS011;20477;51.390;8.102;2023-12-04T03:12:15;17.60;;;10.32;;
34212;SDS011;20477;51.390;8.102;2023-12-04T03:14:43;20.17;;;11.55;;
34212;SDS011;20477;51.390;8.102;2023-12-04T03:17:11;18.77;;;10.25;;
34212;SDS011;20477;51.390;8.102;2023-12-04T03:19:38;18.30;;;10.93;;
34212;SDS011;20477;51.390;8.102;2023-12-04T03:22:05;17.45;;;11.05;;
34212;SDS011;20477;51.390;8.102;2023-12-04T03:24:32;19.52;;;10.35;;
34212;SDS011;20477;51.390;8.102;2023-12-04T03:27:00;20.25;;;12.07;;
34212;SDS011;20477;51.390;8.102;2023-12-04T03:29:27;17.88;;;11.20;;
34212;SDS011;20477;51.390;8.102;2023-12-04T03:31:55;17.52;;;11.38;;
34212;SDS011;20477;51.390;8.102;2023-12-04T03:34:23;18.42;;;11.18;;
34212;SDS011;20477;51.390;8.102;2023-12-04T03:36:50;20.40;;;10.60;;
34212;SDS011;20477;51.390;8.102;2023-12-04T03:39:17;17.30;;;10.23;;
34212;SDS011;20477;51.390;8.102;2023-12-04T03:41:45;17.58;;;10.63;;
34212;SDS011;20477;51.390;8.102;2023-12-04T03:44:12;15.85;;;9.88;;
34212;SDS011;20477;51.390;8.102;2023-12-04T03:46:39;17.60;;;10.80;;
34212;SDS011;20477;51.390;8.102;2023-12-04T03:49:08;16.58;;;10.02;;
34212;SDS011;20477;51.390;8.102;2023-12-04T03:51:35;17.50;;;11.18;;
34212;SDS011;20477;51.390;8.102;2023-12-04T03:54:02;17.20;;;10.27;;
34212;SDS011;20477;51.390;8.102;2023-12-04T03:56:30;16.63;;;9.95;;
34212;SDS011;20477;51.390;8.102;2023-12-04T03:58:57;16.08;;;9.40;;
34212;SDS011;20477;51.390;8.102;2023-12-04T04:01:24;17.30;;;10.45;;
34212;SDS011;20477;51.390;8.102;2023-12-04T04:03:51;17.58;;;10.80;;
34212;SDS011;20477;51.390;8.102;2023-12-04T04:06:20;16.52;;;10.10;;
34212;SDS011;20477;51.390;8.102;2023-12-04T04:08:47;17.23;;;10.20;;
34212;SDS011;20477;51.390;8.102;2023-12-04T04:11:14;19.13;;;10.82;;
34212;SDS011;20477;51.390;8.102;2023-12-04T04:13:41;22.17;;;14.55;;
34212;SDS011;20477;51.390;8.102;2023-12-04T04:16:13;16.88;;;9.32;;
34212;SDS011;20477;51.390;8.102;2023-12-04T04:18:40;15.30;;;10.00;;
34212;SDS011;20477;51.390;8.102;2023-12-04T04:21:07;16.52;;;9.30;;
34212;SDS011;20477;51.390;8.102;2023-12-04T04:23:36;17.25;;;10.00;;
34212;SDS011;20477;51.390;8.102;2023-12-04T04:26:03;15.75;;;10.10;;
34212;SDS011;20477;51.390;8.102;2023-12-04T04:28:30;16.52;;;9.50;;
34212;SDS011;20477;51.390;8.102;2023-12-04T04:30:58;13.75;;;8.88;;
34212;SDS011;20477;51.390;8.102;2023-12-04T04:33:25;14.13;;;7.95;;
34212;SDS011;20477;51.390;8.102;2023-12-04T04:35:53;15.43;;;8.93;;
34212;SDS011;20477;51.390;8.102;2023-12-04T04:38:20;14.82;;;8.85;;
34212;SDS011;20477;51.390;8.102;2023-12-04T04:40:48;14.27;;;8.90;;
34212;SDS011;20477;51.390;8.102;2023-12-04T04:43:15;13.32;;;8.50;;
34212;SDS011;20477;51.390;8.102;2023-12-04T04:45:43;14.18;;;8.57;;
34212;SDS011;20477;51.390;8.102;2023-12-04T04:48:10;13.98;;;8.55;;
34212;SDS011;20477;51.390;8.102;2023-12-04T04:50:37;13.18;;;7.88;;
34212;SDS011;20477;51.390;8.102;2023-12-04T04:53:04;14.40;;;9.23;;
34212;SDS011;20477;51.390;8.102;2023-12-04T04:55:31;13.00;;;8.05;;
34212;SDS011;20477;51.390;8.102;2023-12-04T04:58:15;11.27;;;6.88;;
34212;SDS011;20477;51.390;8.102;2023-12-04T05:00:43;13.90;;;9.27;;
34212;SDS011;20477;51.390;8.102;2023-12-04T05:03:10;13.77;;;8.00;;
34212;SDS011;20477;51.390;8.102;2023-12-04T05:05:37;12.32;;;8.02;;
34212;SDS011;20477;51.390;8.102;2023-12-04T05:08:04;13.15;;;8.25;;
34212;SDS011;20477;51.390;8.102;2023-12-04T05:10:31;15.77;;;9.38;;
34212;SDS011;20477;51.390;8.102;2023-12-04T05:12:59;17.75;;;9.85;;
34212;SDS011;20477;51.390;8.102;2023-12-04T05:15:27;14.45;;;8.75;;
34212;SDS011;20477;51.390;8.102;2023-12-04T05:17:55;13.05;;;8.23;;
34212;SDS011;20477;51.390;8.102;2023-12-04T05:20:22;13.90;;;8.18;;
34212;SDS011;20477;51.390;8.102;2023-12-04T05:22:49;13.48;;;8.55;;
34212;SDS011;20477;51.390;8.102;2023-12-04T05:25:16;14.40;;;8.68;;
34212;SDS011;20477;51.390;8.102;2023-12-04T05:27:44;14.07;;;8.02;;
34212;SDS011;20477;51.390;8.102;2023-12-04T05:30:12;12.40;;;8.00;;
34212;SDS011;20477;51.390;8.102;2023-12-04T05:32:41;14.40;;;8.82;;
34212;SDS011;20477;51.390;8.102;2023-12-04T05:35:08;15.88;;;9.05;;
34212;SDS011;20477;51.390;8.102;2023-12-04T05:37:36;13.23;;;8.27;;
34212;SDS011;20477;51.390;8.102;2023-12-04T05:40:03;12.50;;;7.95;;
34212;SDS011;20477;51.390;8.102;2023-12-04T05:42:31;13.98;;;8.73;;
34212;SDS011;20477;51.390;8.102;2023-12-04T05:44:58;13.07;;;8.10;;
34212;SDS011;20477;51.390;8.102;2023-12-04T05:47:25;13.70;;;8.32;;
34212;SDS011;20477;51.390;8.102;2023-12-04T05:49:54;14.15;;;8.50;;
34212;SDS011;20477;51.390;8.102;2023-12-04T05:52:21;15.75;;;8.43;;
34212;SDS011;20477;51.390;8.102;2023-12-04T05:54:48;15.50;;;8.68;;
34212;SDS011;20477;51.390;8.102;2023-12-04T05:57:15;14.10;;;7.53;;
34212;SDS011;20477;51.390;8.102;2023-12-04T05:59:43;15.07;;;8.57;;
34212;SDS011;20477;51.390;8.102;2023-12-04T06:02:10;12.95;;;8.00;;
34212;SDS011;20477;51.390;8.102;2023-12-04T06:04:37;14.40;;;8.68;;
34212;SDS011;20477;51.390;8.102;2023-12-04T06:07:06;13.73;;;7.93;;
34212;SDS011;20477;51.390;8.102;2023-12-04T06:09:33;11.38;;;7.22;;
34212;SDS011;20477;51.390;8.102;2023-12-04T06:12:00;18.52;;;8.70;;
34212;SDS011;20477;51.390;8.102;2023-12-04T06:14:27;10.48;;;6.50;;
34212;SDS011;20477;51.390;8.102;2023-12-04T06:16:55;12.38;;;7.40;;
34212;SDS011;20477;51.390;8.102;2023-12-04T06:19:22;14.43;;;9.13;;
34212;SDS011;20477;51.390;8.102;2023-12-04T06:21:49;12.32;;;8.65;;
34212;SDS011;20477;51.390;8.102;2023-12-04T06:24:18;11.27;;;6.93;;
34212;SDS011;20477;51.390;8.102;2023-12-04T06:26:46;11.82;;;7.78;;
34212;SDS011;20477;51.390;8.102;2023-12-04T06:29:16;12.73;;;7.38;;
34212;SDS011;20477;51.390;8.102;2023-12-04T06:31:44;13.48;;;7.63;;
34212;SDS011;20477;51.390;8.102;2023-12-04T06:34:11;14.05;;;8.60;;
34212;SDS011;20477;51.390;8.102;2023-12-04T06:36:39;12.45;;;7.88;;
34212;SDS011;20477;51.390;8.102;2023-12-04T06:39:06;12.18;;;7.78;;
34212;SDS011;20477;51.390;8.102;2023-12-04T06:41:37;12.82;;;8.20;;
34212;SDS011;20477;51.390;8.102;2023-12-04T06:44:05;12.98;;;8.25;;
34212;SDS011;20477;51.390;8.102;2023-12-04T06:46:34;13.93;;;8.95;;
34212;SDS011;20477;51.390;8.102;2023-12-04T06:49:04;12.57;;;8.75;;
34212;SDS011;20477;51.390;8.102;2023-12-04T06:51:31;14.55;;;8.93;;
34212;SDS011;20477;51.390;8.102;2023-12-04T06:53:58;15.27;;;10.85;;
34212;SDS011;20477;51.390;8.102;2023-12-04T06:56:25;14.68;;;8.48;;
34212;SDS011;20477;51.390;8.102;2023-12-04T06:58:54;13.27;;;8.20;;
34212;SDS011;20477;51.390;8.102;2023-12-04T07:01:21;14.13;;;8.73;;
34212;SDS011;20477;51.390;8.102;2023-12-04T07:03:49;15.43;;;9.27;;
34212;SDS011;20477;51.390;8.102;2023-12-04T07:06:16;13.27;;;9.25;;
34212;SDS011;20477;51.390;8.102;2023-12-04T07:08:44;14.98;;;7.95;;
34212;SDS011;20477;51.390;8.102;2023-12-04T07:11:11;11.32;;;7.65;;
34212;SDS011;20477;51.390;8.102;2023-12-04T07:13:40;13.10;;;8.23;;
34212;SDS011;20477;51.390;8.102;2023-12-04T07:16:09;13.15;;;8.10;;
34212;SDS011;20477;51.390;8.102;2023-12-04T07:18:36;11.73;;;7.93;;
34212;SDS011;20477;51.390;8.102;2023-12-04T07:21:04;12.35;;;7.75;;
34212;SDS011;20477;51.390;8.102;2023-12-04T07:23:31;13.00;;;8.40;;
34212;SDS011;20477;51.390;8.102;2023-12-04T07:25:58;13.07;;;8.07;;
34212;SDS011;20477;51.390;8.102;2023-12-04T07:28:25;12.90;;;7.93;;
34212;SDS011;20477;51.390;8.102;2023-12-04T07:30:53;15.60;;;7.80;;
34212;SDS011;20477;51.390;8.102;2023-12-04T07:33:22;12.95;;;8.25;;
34212;SDS011;20477;51.390;8.102;2023-12-04T07:35:49;11.93;;;8.88;;
34212;SDS011;20477;51.390;8.102;2023-12-04T07:38:17;13.27;;;7.93;;
34212;SDS011;20477;51.390;8.102;2023-12-04T07:40:44;15.15;;;8.60;;
34212;SDS011;20477;51.390;8.102;2023-12-04T07:43:11;12.50;;;7.95;;
34212;SDS011;20477;51.390;8.102;2023-12-04T07:45:39;12.07;;;7.53;;
34212;SDS011;20477;51.390;8.102;2023-12-04T07:48:06;11.63;;;7.57;;
34212;SDS011;20477;51.390;8.102;2023-12-04T07:50:35;11.48;;;7.80;;
34212;SDS011;20477;51.390;8.102;2023-12-04T07:53:02;12.43;;;6.85;;
34212;SDS011;20477;51.390;8.102;2023-12-04T07:55:29;10.77;;;7.00;;
34212;SDS011;20477;51.390;8.102;2023-12-04T07:57:56;11.70;;;7.40;;
34212;SDS011;20477;51.390;8.102;2023-12-04T08:00:24;12.75;;;8.05;;
34212;SDS011;20477;51.390;8.102;2023-12-04T08:02:51;11.38;;;7.65;;
34212;SDS011;20477;51.390;8.102;2023-12-04T08:05:18;12.40;;;8.07;;
34212;SDS011;20477;51.390;8.102;2023-12-04T08:07:47;11.77;;;7.38;;
34212;SDS011;20477;51.390;8.102;2023-12-04T08:10:14;12.18;;;7.28;;
34212;SDS011;20477;51.390;8.102;2023-12-04T08:12:43;12.13;;;7.35;;
34212;SDS011;20477;51.390;8.102;2023-12-04T08:15:11;11.82;;;7.50;;
34212;SDS011;20477;51.390;8.102;2023-12-04T08:17:38;11.90;;;6.38;;
34212;SDS011;20477;51.390;8.102;2023-12-04T08:20:06;14.40;;;8.88;;
34212;SDS011;20477;51.390;8.102;2023-12-04T08:22:33;12.30;;;7.70;;
34212;SDS011;20477;51.390;8.102;2023-12-04T08:25:02;12.40;;;7.95;;
34212;SDS011;20477;51.390;8.102;2023-12-04T08:27:31;12.90;;;7.93;;
34212;SDS011;20477;51.390;8.102;2023-12-04T08:29:59;12.48;;;7.63;;
34212;SDS011;20477;51.390;8.102;2023-12-04T08:32:26;11.65;;;7.50;;
34212;SDS011;20477;51.390;8.102;2023-12-04T08:34:53;13.68;;;8.57;;
34212;SDS011;20477;51.390;8.102;2023-12-04T08:37:20;14.88;;;8.38;;
34212;SDS011;20477;51.390;8.102;2023-12-04T08:39:48;11.95;;;7.75;;
34212;SDS011;20477;51.390;8.102;2023-12-04T08:42:16;13.43;;;7.80;;
34212;SDS011;20477;51.390;8.102;2023-12-04T08:44:49;15.82;;;8.63;;
34212;SDS011;20477;51.390;8.102;2023-12-04T08:47:16;12.90;;;8.05;;
34212;SDS011;20477;51.390;8.102;2023-12-04T08:49:43;10.63;;;7.40;;
34212;SDS011;20477;51.390;8.102;2023-12-04T08:52:15;12.43;;;8.40;;
34212;SDS011;20477;51.390;8.102;2023-12-04T08:54:42;11.77;;;7.93;;
34212;SDS011;20477;51.390;8.102;2023-12-04T08:57:09;12.98;;;8.82;;
34212;SDS011;20477;51.390;8.102;2023-12-04T08:59:38;13.43;;;8.65;;
34212;SDS011;20477;51.390;8.102;2023-12-04T09:02:05;11.60;;;7.40;;
34212;SDS011;20477;51.390;8.102;2023-12-04T09:04:33;12.15;;;7.45;;
34212;SDS011;20477;51.390;8.102;2023-12-04T09:07:01;11.07;;;7.55;;
34212;SDS011;20477;51.390;8.102;2023-12-04T09:09:48;12.07;;;8.38;;
34212;SDS011;20477;51.390;8.102;2023-12-04T09:12:15;11.65;;;7.38;;
34212;SDS011;20477;51.390;8.102;2023-12-04T09:14:44;15.10;;;7.45;;
34212;SDS011;20477;51.390;8.102;2023-12-04T09:17:11;11.75;;;8.40;;
34212;SDS011;20477;51.390;8.102;2023-12-04T09:19:39;12.40;;;8.10;;
34212;SDS011;20477;51.390;8.102;2023-12-04T09:22:06;14.70;;;9.05;;
34212;SDS011;20477;51.390;8.102;2023-12-04T09:24:44;12.82;;;8.73;;
34212;SDS011;20477;51.390;8.102;2023-12-04T09:27:11;11.75;;;7.78;;
34212;SDS011;20477;51.390;8.102;2023-12-04T09:29:38;13.10;;;7.85;;
34212;SDS011;20477;51.390;8.102;2023-12-04T09:32:08;11.25;;;6.85;;
34212;SDS011;20477;51.390;8.102;2023-12-04T09:34:35;12.20;;;7.40;;
34212;SDS011;20477;51.390;8.102;2023-12-04T09:37:03;12.88;;;8.10;;
34212;SDS011;20477;51.390;8.102;2023-12-04T09:39:37;11.23;;;7.10;;
34212;SDS011;20477;51.390;8.102;2023-12-04T09:42:04;15.07;;;7.65;;
34212;SDS011;20477;51.390;8.102;2023-12-04T09:44:32;13.13;;;8.15;;
34212;SDS011;20477;51.390;8.102;2023-12-04T09:46:59;12.20;;;7.10;;
34212;SDS011;20477;51.390;8.102;2023-12-04T09:49:29;12.20;;;7.75;;
34212;SDS011;20477;51.390;8.102;2023-12-04T09:51:58;12.13;;;6.93;;
34212;SDS011;20477;51.390;8.102;2023-12-04T09:54:27;13.35;;;8.45;;
34212;SDS011;20477;51.390;8.102;2023-12-04T09:56:55;12.20;;;7.95;;
34212;SDS011;20477;51.390;8.102;2023-12-04T09:59:23;12.35;;;7.50;;
34212;SDS011;20477;51.390;8.102;2023-12-04T10:01:51;11.52;;;7.53;;
34212;SDS011;20477;51.390;8.102;2023-12-04T10:04:19;12.85;;;8.50;;
34212;SDS011;20477;51.390;8.102;2023-12-04T10:06:47;13.70;;;8.00;;
34212;SDS011;20477;51.390;8.102;2023-12-04T10:09:16;13.15;;;7.65;;
34212;SDS011;20477;51.390;8.102;2023-12-04T10:11:44;14.25;;;8.45;;
34212;SDS011;20477;51.390;8.102;2023-12-04T10:14:14;16.65;;;8.07;;
34212;SDS011;20477;51.390;8.102;2023-12-04T10:16:43;9.23;;;6.28;;
34212;SDS011;20477;51.390;8.102;2023-12-04T10:19:13;13.80;;;7.38;;
34212;SDS011;20477;51.390;8.102;2023-12-04T10:21:41;12.88;;;8.02;;
34212;SDS011;20477;51.390;8.102;2023-12-04T10:24:10;11.43;;;7.28;;
34212;SDS011;20477;51.390;8.102;2023-12-04T10:26:37;11.23;;;6.47;;
34212;SDS011;20477;51.390;8.102;2023-12-04T10:29:05;12.90;;;7.80;;
34212;SDS011;20477;51.390;8.102;2023-12-04T10:31:32;11.25;;;6.53;;
34212;SDS011;20477;51.390;8.102;2023-12-04T10:33:59;12.85;;;6.63;;
34212;SDS011;20477;51.390;8.102;2023-12-04T10:36:27;10.00;;;6.03;;
34212;SDS011;20477;51.390;8.102;2023-12-04T10:38:57;10.80;;;6.68;;
34212;SDS011;20477;51.390;8.102;2023-12-04T10:41:26;9.05;;;6.00;;
34212;SDS011;20477;51.390;8.102;2023-12-04T10:43:54;12.90;;;6.63;;
34212;SDS011;20477;51.390;8.102;2023-12-04T10:46:33;15.30;;;7.47;;
34212;SDS011;20477;51.390;8.102;2023-12-04T10:49:02;12.50;;;7.18;;
34212;SDS011;20477;51.390;8.102;2023-12-04T10:51:32;9.13;;;5.70;;
34212;SDS011;20477;51.390;8.102;2023-12-04T10:54:00;14.65;;;8.77;;
34212;SDS011;20477;51.390;8.102;2023-12-04T10:56:30;10.50;;;6.75;;
34212;SDS011;20477;51.390;8.102;2023-12-04T10:58:58;11.73;;;5.78;;
34212;SDS011;20477;51.390;8.102;2023-12-04T11:01:27;10.93;;;7.55;;
34212;SDS011;20477;51.390;8.102;2023-12-04T11:03:55;10.00;;;7.13;;
34212;SDS011;20477;51.390;8.102;2023-12-04T11:06:23;11.35;;;6.38;;
34212;SDS011;20477;51.390;8.102;2023-12-04T11:08:51;11.30;;;7.63;;
34212;SDS011;20477;51.390;8.102;2023-12-04T11:11:19;9.57;;;6.10;;
34212;SDS011;20477;51.390;8.102;2023-12-04T11:13:50;12.07;;;7.22;;
34212;SDS011;20477;51.390;8.102;2023-12-04T11:16:22;11.87;;;6.57;;
34212;SDS011;20477;51.390;8.102;2023-12-04T11:18:54;9.02;;;6.45;;
34212;SDS011;20477;51.390;8.102;2023-12-04T11:21:23;10.65;;;6.53;;
34212;SDS011;20477;51.390;8.102;2023-12-04T11:23:50;10.98;;;6.85;;
34212;SDS011;20477;51.390;8.102;2023-12-04T11:26:17;11.07;;;7.10;;
34212;SDS011;20477;51.390;8.102;2023-12-04T11:28:45;10.05;;;6.82;;
34212;SDS011;20477;51.390;8.102;2023-12-04T11:31:14;10.45;;;6.68;;
34212;SDS011;20477;51.390;8.102;2023-12-04T11:33:42;9.02;;;6.05;;
34212;SDS011;20477;51.390;8.102;2023-12-04T11:36:10;11.48;;;7.35;;
34212;SDS011;20477;51.390;8.102;2023-12-04T11:38:43;10.63;;;6.95;;
34212;SDS011;20477;51.390;8.102;2023-12-04T11:41:16;11.00;;;7.13;;
34212;SDS011;20477;51.390;8.102;2023-12-04T11:43:50;14.32;;;7.05;;
34212;SDS011;20477;51.390;8.102;2023-12-04T11:46:20;10.38;;;5.93;;
34212;SDS011;20477;51.390;8.102;2023-12-04T11:48:47;12.38;;;7.85;;
34212;SDS011;20477;51.390;8.102;2023-12-04T11:51:15;14.60;;;8.65;;
34212;SDS011;20477;51.390;8.102;2023-12-04T11:54:02;12.73;;;7.88;;
34212;SDS011;20477;51.390;8.102;2023-12-04T11:56:30;12.32;;;8.50;;
34212;SDS011;20477;51.390;8.102;2023-12-04T11:59:02;10.57;;;7.35;;
34212;SDS011;20477;51.390;8.102;2023-12-04T12:01:35;12.60;;;7.93;;
34212;SDS011;20477;51.390;8.102;2023-12-04T12:04:04;12.25;;;8.48;;
34212;SDS011;20477;51.390;8.102;2023-12-04T12:06:31;12.43;;;7.85;;
34212;SDS011;20477;51.390;8.102;2023-12-04T12:08:59;11.52;;;7.53;;
34212;SDS011;20477;51.390;8.102;2023-12-04T12:11:26;12.60;;;7.90;;
34212;SDS011;20477;51.390;8.102;2023-12-04T12:13:54;13.90;;;8.95;;
34212;SDS011;20477;51.390;8.102;2023-12-04T12:16:21;12.45;;;7.68;;
34212;SDS011;20477;51.390;8.102;2023-12-04T12:18:50;13.93;;;8.63;;
34212;SDS011;20477;51.390;8.102;2023-12-04T12:21:17;16.88;;;9.07;;
34212;SDS011;20477;51.390;8.102;2023-12-04T12:23:45;14.35;;;8.98;;
34212;SDS011;20477;51.390;8.102;2023-12-04T12:26:13;13.32;;;8.95;;
34212;SDS011;20477;51.390;8.102;2023-12-04T12:28:41;14.52;;;8.63;;
34212;SDS011;20477;51.390;8.102;2023-12-04T12:31:09;14.07;;;9.27;;
34212;SDS011;20477;51.390;8.102;2023-12-04T12:33:36;15.70;;;9.02;;
34212;SDS011;20477;51.390;8.102;2023-12-04T12:36:05;15.93;;;9.65;;
34212;SDS011;20477;51.390;8.102;2023-12-04T12:38:32;13.32;;;8.82;;
34212;SDS011;20477;51.390;8.102;2023-12-04T12:41:00;15.38;;;9.43;;
34212;SDS011;20477;51.390;8.102;2023-12-04T12:43:27;15.95;;;10.02;;
34212;SDS011;20477;51.390;8.102;2023-12-04T12:45:54;14.20;;;8.45;;
34212;SDS011;20477;51.390;8.102;2023-12-04T12:48:22;12.65;;;8.70;;
34212;SDS011;20477;51.390;8.102;2023-12-04T12:50:49;13.43;;;9.23;;
34212;SDS011;20477;51.390;8.102;2023-12-04T12:53:18;13.07;;;8.95;;
34212;SDS011;20477;51.390;8.102;2023-12-04T12:55:45;12.65;;;8.55;;
34212;SDS011;20477;51.390;8.102;2023-12-04T12:58:14;15.18;;;8.65;;
34212;SDS011;20477;51.390;8.102;2023-12-04T13:00:42;17.92;;;9.23;;
34212;SDS011;20477;51.390;8.102;2023-12-04T13:03:13;13.30;;;8.65;;
34212;SDS011;20477;51.390;8.102;2023-12-04T13:05:41;14.45;;;8.43;;
34212;SDS011;20477;51.390;8.102;2023-12-04T13:08:08;13.50;;;8.18;;
34212;SDS011;20477;51.390;8.102;2023-12-04T13:10:37;13.90;;;9.60;;
34212;SDS011;20477;51.390;8.102;2023-12-04T13:13:08;15.32;;;9.43;;
34212;SDS011;20477;51.390;8.102;2023-12-04T13:15:36;15.77;;;9.70;;
34212;SDS011;20477;51.390;8.102;2023-12-04T13:18:03;14.85;;;9.75;;
34212;SDS011;20477;51.390;8.102;2023-12-04T13:20:30;14.00;;;8.65;;
34212;SDS011;20477;51.390;8.102;2023-12-04T13:22:58;15.88;;;8.95;;
34212;SDS011;20477;51.390;8.102;2023-12-04T13:25:25;12.98;;;8.35;;
34212;SDS011;20477;51.390;8.102;2023-12-04T13:27:57;15.63;;;9.00;;
34212;SDS011;20477;51.390;8.102;2023-12-04T13:30:24;9.93;;;6.72;;
34212;SDS011;20477;51.390;8.102;2023-12-04T13:32:52;12.20;;;7.18;;
34212;SDS011;20477;51.390;8.102;2023-12-04T13:35:19;9.95;;;6.72;;
34212;SDS011;20477;51.390;8.102;2023-12-04T13:37:46;9.85;;;5.78;;
34212;SDS011;20477;51.390;8.102;2023-12-04T13:40:14;12.02;;;6.97;;
34212;SDS011;20477;51.390;8.102;2023-12-04T13:42:41;9.60;;;6.40;;
34212;SDS011;20477;51.390;8.102;2023-12-04T13:45:10;10.32;;;6.88;;
34212;SDS011;20477;51.390;8.102;2023-12-04T13:47:37;11.38;;;6.85;;
34212;SDS011;20477;51.390;8.102;2023-12-04T13:50:05;12.13;;;7.05;;
34212;SDS011;20477;51.390;8.102;2023-12-04T13:52:33;9.98;;;7.32;;
34212;SDS011;20477;51.390;8.102;2023-12-04T13:55:00;12.20;;;6.93;;
34212;SDS011;20477;51.390;8.102;2023-12-04T13:57:27;12.50;;;7.63;;
34212;SDS011;20477;51.390;8.102;2023-12-04T13:59:54;10.18;;;6.95;;
34212;SDS011;20477;51.390;8.102;2023-12-04T14:02:23;12.25;;;6.57;;
34212;SDS011;20477;51.390;8.102;2023-12-04T14:04:50;11.88;;;7.32;;
34212;SDS011;20477;51.390;8.102;2023-12-04T14:07:18;12.07;;;8.23;;
34212;SDS011;20477;51.390;8.102;2023-12-04T14:09:45;11.88;;;7.18;;
34212;SDS011;20477;51.390;8.102;2023-12-04T14:12:13;13.25;;;8.05;;
34212;SDS011;20477;51.390;8.102;2023-12-04T14:14:40;14.32;;;8.85;;
34212;SDS011;20477;51.390;8.102;2023-12-04T14:17:07;10.63;;;7.20;;
34212;SDS011;20477;51.390;8.102;2023-12-04T14:19:35;13.82;;;9.55;;
34212;SDS011;20477;51.390;8.102;2023-12-04T14:22:02;14.45;;;9.40;;
34212;SDS011;20477;51.390;8.102;2023-12-04T14:24:29;13.43;;;8.63;;
34212;SDS011;20477;51.390;8.102;2023-12-04T14:26:57;15.95;;;6.25;;
34212;SDS011;20477;51.390;8.102;2023-12-04T14:29:24;49.17;;;29.60;;
34212;SDS011;20477;51.390;8.102;2023-12-04T14:31:51;11.88;;;8.43;;
34212;SDS011;20477;51.390;8.102;2023-12-04T14:34:18;10.55;;;7.03;;